createdAt,value
2019-04-21T00:01:52.846Z,75.90
2019-04-21T00:04:38.033Z,76.70
2019-04-21T00:07:13.479Z,76.90
2019-04-21T00:09:52.384Z,77.70
2019-04-21T00:12:18.176Z,76.90
2019-04-21T00:14:43.849Z,77.10
2019-04-21T00:17:10.998Z,77.80
2019-04-21T00:19:44.662Z,78.30
2019-04-21T00:22:31.460Z,79.60
2019-04-21T00:25:04.196Z,79.70
2019-04-21T00:27:38.335Z,79.90
2019-04-21T00:30:15.635Z,80.00
2019-04-21T00:32:39.516Z,80.20
2019-04-21T00:35:07.586Z,80.40
2019-04-21T00:37:53.369Z,80.50
2019-04-21T00:40:32.054Z,80.80
2019-04-21T00:42:55.862Z,80.80
2019-04-21T00:45:23.635Z,80.80
2019-04-21T00:48:04.034Z,81.00
2019-04-21T00:50:50.958Z,80.50
2019-04-21T00:53:37.070Z,80.90
2019-04-21T00:56:05.788Z,81.10
2019-04-21T00:58:33.307Z,81.10
2019-04-21T01:01:08.781Z,81.60
2019-04-21T01:03:46.293Z,81.70
2019-04-21T01:06:16.360Z,81.90
2019-04-21T01:08:47.300Z,82.50
2019-04-21T01:11:28.160Z,82.50
2019-04-21T01:13:58.276Z,82.60
2019-04-21T01:16:28.768Z,83.20
2019-04-21T01:18:57.729Z,83.30
2019-04-21T01:21:14.263Z,83.40
2019-04-21T01:23:44.668Z,83.60
2019-04-21T01:26:29.609Z,83.70
2019-04-21T01:29:06.701Z,83.90
2019-04-21T01:31:36.646Z,84.00
2019-04-21T01:34:14.819Z,84.30
2019-04-21T01:36:44.589Z,84.30
2019-04-21T01:39:19.787Z,84.70
2019-04-21T01:41:50.826Z,85.00
2019-04-21T01:44:30.296Z,85.20
2019-04-21T01:46:51.889Z,85.70
2019-04-21T01:49:21.718Z,85.90
2019-04-21T01:52:17.615Z,85.90
2019-04-21T01:54:55.546Z,85.90
2019-04-21T01:57:47.102Z,85.90
2019-04-21T02:00:13.411Z,86.50
2019-04-21T02:03:04.344Z,86.60
2019-04-21T02:05:31.298Z,86.60
2019-04-21T02:07:55.144Z,86.80
2019-04-21T02:10:40.316Z,86.90
2019-04-21T02:13:07.492Z,87.20
2019-04-21T02:15:46.991Z,87.20
2019-04-21T02:18:12.047Z,87.30
2019-04-21T02:20:32.781Z,87.70
2019-04-21T02:23:28.518Z,87.90
2019-04-21T02:25:52.698Z,88.00
2019-04-21T02:28:29.866Z,88.60
2019-04-21T02:33:51.098Z,89.30
2019-04-21T02:36:35.934Z,89.70
2019-04-21T02:38:52.396Z,89.90
2019-04-21T02:41:06.105Z,89.90
2019-04-21T02:46:27.419Z,90.30
2019-04-21T02:48:55.474Z,90.40
2019-04-21T02:51:28.169Z,90.50
2019-04-21T02:56:35.733Z,90.60
2019-04-21T02:59:06.827Z,90.70
2019-04-21T03:02:28.749Z,90.90
2019-04-21T03:07:25.433Z,91.00
2019-04-21T03:09:51.156Z,91.20
2019-04-21T03:12:22.568Z,91.30
2019-04-21T03:15:06.241Z,91.50
2019-04-21T03:17:46.195Z,91.70
2019-04-21T03:20:08.845Z,91.70
2019-04-21T03:22:49.071Z,91.80
2019-04-21T03:30:35.656Z,92.30
2019-04-21T03:35:57.868Z,92.70
2019-04-21T03:37:52.913Z,92.80
2019-04-21T03:40:18.836Z,93.20
2019-04-21T03:42:57.786Z,93.40
2019-04-21T03:45:42.329Z,93.30
2019-04-21T03:48:15.278Z,93.50
2019-04-21T03:50:33.396Z,93.60
2019-04-21T03:53:02.858Z,93.90
2019-04-21T04:01:16.525Z,94.30
2019-04-21T04:06:48.870Z,94.70
2019-04-21T04:09:26.435Z,94.70
2019-04-21T04:11:49.587Z,95.00
2019-04-21T04:17:10.143Z,95.50
2019-04-21T04:19:26.375Z,95.70
2019-04-21T04:24:29.969Z,96.10
2019-04-21T04:29:24.513Z,96.70
2019-04-21T04:32:00.779Z,96.90
2019-04-21T04:34:41.692Z,97.40
2019-04-21T04:37:12.251Z,97.80
2019-04-21T04:45:10.186Z,98.90
2019-04-21T04:47:29.939Z,99.10
2019-04-21T04:52:41.783Z,99.90
2019-04-21T04:57:51.276Z,99.90
2019-04-21T05:00:19.628Z,99.90
2019-04-21T05:02:42.354Z,99.90
2019-04-21T05:10:31.089Z,99.90
2019-04-21T05:12:54.137Z,99.90
2019-04-21T05:15:41.632Z,99.90
2019-04-21T05:18:02.903Z,99.90
2019-04-21T05:20:22.794Z,99.90
2019-04-21T05:22:59.786Z,99.90
2019-04-21T05:25:28.980Z,99.90
2019-04-21T05:27:56.328Z,99.90
2019-04-21T05:30:50.088Z,99.90
2019-04-21T05:33:38.028Z,99.90
2019-04-21T05:36:24.292Z,99.90
2019-04-21T05:39:07.519Z,99.90
2019-04-21T05:41:29.687Z,99.90
2019-04-21T05:44:10.879Z,99.90
2019-04-21T05:46:53.409Z,99.90
2019-04-21T05:49:22.223Z,99.90
2019-04-21T05:51:59.715Z,99.90
2019-04-21T05:57:05.811Z,99.90
2019-04-21T05:59:48.028Z,99.90
2019-04-21T06:02:24.303Z,99.90
2019-04-21T06:07:26.075Z,99.90
2019-04-21T06:12:28.603Z,99.90
2019-04-21T06:15:02.586Z,99.90
2019-04-21T06:17:35.068Z,99.90
2019-04-21T06:20:10.470Z,99.90
2019-04-21T06:22:43.160Z,99.90
2019-04-21T06:27:45.826Z,99.90
2019-04-21T06:30:13.639Z,99.90
2019-04-21T06:32:50.527Z,99.90
2019-04-21T06:35:53.536Z,99.90
2019-04-21T06:38:14.061Z,99.90
2019-04-21T06:40:45.578Z,99.90
2019-04-21T06:43:28.909Z,99.90
2019-04-21T06:45:50.725Z,99.90
2019-04-21T06:48:22.491Z,99.90
2019-04-21T06:50:52.611Z,99.90
2019-04-21T06:53:29.447Z,99.90
2019-04-21T06:55:57.488Z,99.60
2019-04-21T06:58:30.412Z,99.80
2019-04-21T07:01:02.215Z,99.70
2019-04-21T07:03:38.885Z,97.70
2019-04-21T07:06:08.038Z,97.60
2019-04-21T07:08:49.505Z,97.80
2019-04-21T07:11:12.512Z,98.50
2019-04-21T07:13:50.697Z,98.30
2019-04-21T07:16:25.443Z,98.10
2019-04-21T07:19:03.905Z,98.20
2019-04-21T07:21:30.697Z,98.00
2019-04-21T07:24:10.704Z,97.60
2019-04-21T07:26:36.851Z,97.70
2019-04-21T07:29:17.053Z,97.40
2019-04-21T07:31:48.171Z,96.70
2019-04-21T07:34:19.708Z,96.00
2019-04-21T07:36:51.896Z,96.50
2019-04-21T07:39:18.112Z,96.50
2019-04-21T07:41:43.819Z,96.00
2019-04-21T07:44:18.130Z,96.30
2019-04-21T07:46:45.232Z,95.50
2019-04-21T07:49:46.425Z,95.50
2019-04-21T07:52:48.499Z,95.30
2019-04-21T07:57:45.687Z,93.90
2019-04-21T08:00:29.647Z,94.90
2019-04-21T08:02:54.424Z,94.20
2019-04-21T08:05:30.963Z,94.00
2019-04-21T08:07:57.123Z,93.30
2019-04-21T08:10:33.601Z,93.90
2019-04-21T08:13:09.498Z,94.40
2019-04-21T08:15:39.956Z,93.50
2019-04-21T08:18:16.671Z,95.20
2019-04-21T08:20:46.272Z,94.10
2019-04-21T08:23:20.426Z,94.00
2019-04-21T08:26:03.763Z,94.20
2019-04-21T08:28:26.192Z,94.20
2019-04-21T08:30:54.292Z,93.70
2019-04-21T08:33:42.799Z,93.30
2019-04-21T08:38:38.786Z,92.90
2019-04-21T08:41:08.037Z,92.30
2019-04-21T08:43:43.154Z,91.80
2019-04-21T08:46:13.771Z,91.30
2019-04-21T08:48:43.918Z,91.60
2019-04-21T08:51:27.966Z,90.70
2019-04-21T08:53:53.650Z,90.60
2019-04-21T08:56:46.760Z,91.20
2019-04-21T08:59:45.275Z,92.40
2019-04-21T09:02:24.881Z,90.60
2019-04-21T09:04:53.905Z,90.70
2019-04-21T09:09:57.520Z,89.30
2019-04-21T09:12:29.186Z,89.20
2019-04-21T09:15:01.180Z,88.80
2019-04-21T09:17:28.632Z,88.30
2019-04-21T09:20:13.636Z,90.60
2019-04-21T09:22:41.625Z,89.10
2019-04-21T09:25:11.643Z,86.10
2019-04-21T09:27:42.026Z,87.00
2019-04-21T09:30:02.564Z,87.50
2019-04-21T09:32:33.431Z,81.40
2019-04-21T09:35:09.828Z,82.70
2019-04-21T09:37:45.707Z,85.60
2019-04-21T09:40:12.199Z,80.80
2019-04-21T09:42:53.457Z,82.00
2019-04-21T09:45:15.778Z,81.30
2019-04-21T09:47:57.191Z,81.90
2019-04-21T09:50:20.449Z,79.00
2019-04-21T09:52:58.237Z,76.00
2019-04-21T09:55:31.377Z,73.80
2019-04-21T09:58:07.506Z,73.20
2019-04-21T10:00:44.808Z,73.70
2019-04-21T10:03:08.778Z,73.30
2019-04-21T10:05:38.477Z,70.90
2019-04-21T10:08:10.407Z,72.00
2019-04-21T10:10:42.473Z,70.20
2019-04-21T10:13:14.968Z,74.90
2019-04-21T10:15:48.556Z,67.10
2019-04-21T10:18:19.889Z,63.80
2019-04-21T10:20:51.264Z,67.60
2019-04-21T10:23:23.270Z,63.10
2019-04-21T10:25:54.689Z,66.30
2019-04-21T10:28:26.867Z,63.80
2019-04-21T10:30:58.543Z,64.20
2019-04-21T10:33:30.349Z,66.10
2019-04-21T10:36:02.672Z,64.20
2019-04-21T10:38:40.785Z,59.70
2019-04-21T10:41:06.085Z,63.30
2019-04-21T10:43:37.488Z,62.90
2019-04-21T10:46:07.175Z,61.80
2019-04-21T10:48:37.909Z,58.40
2019-04-21T10:51:07.966Z,57.10
2019-04-21T10:53:38.775Z,57.90
2019-04-21T10:56:19.216Z,60.00
2019-04-21T10:58:42.406Z,57.60
2019-04-21T11:01:14.400Z,55.50
2019-04-21T11:04:00.931Z,54.80
2019-04-21T11:06:32.591Z,55.80
2019-04-21T11:09:05.457Z,56.60
2019-04-21T11:11:37.699Z,54.80
2019-04-21T11:14:08.883Z,58.10
2019-04-21T11:16:39.818Z,58.40
2019-04-21T11:19:11.649Z,56.80
2019-04-21T11:21:44.941Z,58.60
2019-04-21T11:24:14.847Z,56.30
2019-04-21T11:26:47.773Z,56.70
2019-04-21T11:29:21.226Z,57.30
2019-04-21T11:31:54.859Z,54.10
2019-04-21T11:34:29.281Z,56.00
2019-04-21T11:37:03.934Z,55.90
2019-04-21T11:39:46.074Z,55.90
2019-04-21T11:42:17.556Z,55.90
2019-04-21T11:44:49.401Z,52.60
2019-04-21T11:47:30.367Z,54.20
2019-04-21T11:50:03.383Z,52.10
2019-04-21T11:52:41.088Z,50.50
2019-04-21T11:55:16.641Z,50.70
2019-04-21T11:57:50.152Z,49.60
2019-04-21T12:00:21.773Z,52.00
2019-04-21T12:02:53.378Z,52.60
2019-04-21T12:05:25.746Z,51.80
2019-04-21T12:07:58.538Z,50.10
2019-04-21T12:10:31.917Z,49.70
2019-04-21T12:13:05.558Z,51.00
2019-04-21T12:15:36.854Z,51.10
2019-04-21T12:18:10.047Z,50.20
2019-04-21T12:20:41.301Z,51.90
2019-04-21T12:23:12.469Z,52.80
2019-04-21T12:25:45.605Z,55.60
2019-04-21T12:28:17.421Z,50.30
2019-04-21T12:30:51.721Z,50.20
2019-04-21T12:33:42.198Z,54.50
2019-04-21T12:36:15.832Z,50.00
2019-04-21T12:38:53.973Z,53.80
2019-04-21T12:41:20.391Z,52.50
2019-04-21T12:43:52.974Z,49.90
2019-04-21T12:46:25.582Z,50.40
2019-04-21T12:48:57.885Z,48.40
2019-04-21T12:51:30.163Z,46.10
2019-04-21T12:54:01.604Z,47.40
2019-04-21T12:56:34.068Z,47.00
2019-04-21T12:59:05.224Z,47.80
2019-04-21T13:01:37.011Z,47.60
2019-04-21T13:04:10.140Z,50.10
2019-04-21T13:06:41.676Z,48.30
2019-04-21T13:09:16.142Z,47.20
2019-04-21T13:11:45.266Z,45.20
2019-04-21T13:14:17.827Z,45.40
2019-04-21T13:16:49.690Z,50.00
2019-04-21T13:19:21.042Z,45.70
2019-04-21T13:21:52.437Z,47.10
2019-04-21T13:24:24.143Z,45.90
2019-04-21T13:26:58.469Z,46.30
2019-04-21T13:29:28.224Z,47.90
2019-04-21T13:32:01.202Z,45.60
2019-04-21T13:34:33.682Z,42.00
2019-04-21T13:37:07.685Z,48.00
2019-04-21T13:40:09.591Z,45.90
2019-04-21T13:42:31.131Z,43.30
2019-04-21T13:44:57.190Z,45.80
2019-04-21T13:47:26.504Z,45.20
2019-04-21T13:49:59.859Z,45.00
2019-04-21T13:52:31.261Z,45.40
2019-04-21T13:55:03.412Z,41.00
2019-04-21T13:57:34.679Z,44.40
2019-04-21T14:00:06.989Z,44.70
2019-04-21T14:02:38.714Z,44.90
2019-04-21T14:05:13.394Z,43.80
2019-04-21T14:07:43.902Z,47.20
2019-04-21T14:10:17.855Z,44.30
2019-04-21T14:12:49.032Z,48.00
2019-04-21T14:15:22.003Z,47.60
2019-04-21T14:17:53.208Z,44.50
2019-04-21T14:20:27.139Z,45.20
2019-04-21T14:23:10.264Z,47.80
2019-04-21T14:25:32.061Z,45.60
2019-04-21T14:28:04.030Z,44.60
2019-04-21T14:30:36.510Z,44.60
2019-04-21T14:33:07.890Z,42.20
2019-04-21T14:35:38.992Z,41.10
2019-04-21T14:38:10.834Z,43.80
2019-04-21T14:40:42.075Z,43.20
2019-04-21T14:43:14.529Z,45.00
2019-04-21T14:46:06.382Z,44.50
2019-04-21T14:49:11.098Z,42.40
2019-04-21T14:52:01.219Z,44.90
2019-04-21T14:54:54.410Z,43.00
2019-04-21T14:57:25.539Z,44.30
2019-04-21T14:59:57.694Z,43.90
2019-04-21T15:02:29.785Z,41.20
2019-04-21T15:05:02.120Z,44.00
2019-04-21T15:07:33.202Z,42.70
2019-04-21T15:10:13.321Z,43.50
2019-04-21T15:12:39.353Z,43.70
2019-04-21T15:15:11.766Z,44.00
2019-04-21T15:17:44.038Z,42.30
2019-04-21T15:20:17.320Z,43.00
2019-04-21T15:22:48.318Z,42.90
2019-04-21T15:25:20.382Z,42.10
2019-04-21T15:27:52.781Z,42.90
2019-04-21T15:30:24.776Z,43.10
2019-04-21T15:32:55.684Z,42.70
2019-04-21T15:35:26.924Z,42.60
2019-04-21T15:37:58.095Z,43.60
2019-04-21T15:40:38.270Z,42.50
2019-04-21T15:43:02.419Z,43.90
2019-04-21T15:45:33.384Z,43.20
2019-04-21T15:48:05.472Z,42.50
2019-04-21T15:50:37.699Z,42.70
2019-04-21T15:53:11.806Z,42.70
2019-04-21T15:55:52.880Z,42.00
2019-04-21T15:58:48.382Z,41.80
2019-04-21T16:01:34.549Z,44.20
2019-04-21T16:04:10.776Z,43.00
2019-04-21T16:06:43.633Z,43.50
2019-04-21T16:09:17.691Z,43.70
2019-04-21T16:11:49.752Z,43.30
2019-04-21T16:14:24.850Z,43.70
2019-04-21T16:16:57.260Z,42.90
2019-04-21T16:19:31.248Z,43.70
2019-04-21T16:22:06.577Z,41.20
2019-04-21T16:24:39.888Z,44.10
2019-04-21T16:27:12.693Z,44.70
2019-04-21T16:29:47.851Z,44.40
2019-04-21T16:32:21.432Z,45.80
2019-04-21T16:34:59.032Z,44.30
2019-04-21T16:37:26.017Z,44.60
2019-04-21T16:40:01.262Z,44.70
2019-04-21T16:42:36.793Z,43.80
2019-04-21T16:45:10.494Z,43.80
2019-04-21T16:47:42.139Z,45.40
2019-04-21T16:50:15.989Z,45.00
2019-04-21T16:53:10.260Z,45.50
2019-04-21T16:56:04.854Z,45.30
2019-04-21T16:59:00.787Z,45.20
2019-04-21T17:01:32.315Z,46.20
2019-04-21T17:04:04.601Z,46.30
2019-04-21T17:06:35.756Z,46.30
2019-04-21T17:09:08.599Z,46.20
2019-04-21T17:11:43.715Z,46.80
2019-04-21T17:14:34.614Z,46.40
2019-04-21T17:17:14.155Z,46.90
2019-04-21T17:19:26.942Z,47.30
2019-04-21T17:21:50.348Z,47.40
2019-04-21T17:24:22.200Z,47.30
2019-04-21T17:26:53.361Z,47.30
2019-04-21T17:29:25.701Z,48.50
2019-04-21T17:31:57.370Z,48.00
2019-04-21T17:34:31.602Z,49.50
2019-04-21T17:37:01.270Z,48.40
2019-04-21T17:39:32.210Z,48.80
2019-04-21T17:42:16.579Z,49.20
2019-04-21T17:44:37.249Z,49.00
2019-04-21T17:47:21.799Z,49.00
2019-04-21T17:49:41.535Z,49.40
2019-04-21T17:52:42.891Z,50.40
2019-04-21T17:55:25.078Z,51.20
2019-04-21T17:58:06.569Z,51.20
2019-04-21T18:01:09.217Z,50.50
2019-04-21T18:03:27.104Z,50.50
2019-04-21T18:05:46.963Z,50.40
2019-04-21T18:08:22.919Z,50.70
2019-04-21T18:10:53.472Z,51.60
2019-04-21T18:13:17.595Z,50.60
2019-04-21T18:15:55.753Z,51.60
2019-04-21T18:18:18.618Z,52.00
2019-04-21T18:20:55.151Z,52.10
2019-04-21T18:23:59.795Z,52.40
2019-04-21T18:26:35.468Z,53.00
2019-04-21T18:28:57.194Z,53.50
2019-04-21T18:31:33.788Z,54.30
2019-04-21T18:34:11.095Z,55.30
2019-04-21T18:36:48.667Z,55.90
2019-04-21T18:39:38.115Z,56.50
2019-04-21T18:42:39.857Z,56.80
2019-04-21T18:48:19.381Z,57.90
2019-04-21T18:51:12.392Z,58.20
2019-04-21T18:54:24.163Z,58.80
2019-04-21T18:56:33.654Z,59.00
2019-04-21T18:59:06.627Z,59.50
2019-04-21T19:01:38.904Z,59.70
2019-04-21T19:04:14.394Z,59.90
2019-04-21T19:07:00.818Z,60.10
2019-04-21T19:09:54.738Z,60.40
2019-04-21T19:12:07.698Z,60.60
2019-04-21T19:14:50.817Z,60.80
2019-04-21T19:19:56.388Z,60.80
2019-04-21T19:22:15.331Z,61.50
2019-04-21T19:24:54.920Z,62.00
2019-04-21T19:27:23.793Z,62.20
2019-04-21T19:30:10.876Z,62.20
2019-04-21T19:32:30.313Z,62.70
2019-04-21T19:34:47.373Z,62.40
2019-04-21T19:37:22.519Z,62.30
2019-04-21T19:40:05.417Z,62.30
2019-04-21T19:42:36.983Z,62.70
2019-04-21T19:45:11.863Z,62.70
2019-04-21T19:47:50.405Z,62.90
2019-04-21T19:50:26.032Z,63.20
2019-04-21T19:52:43.764Z,63.10
2019-04-21T19:55:09.747Z,63.10
2019-04-21T19:57:41.090Z,62.40
2019-04-21T20:00:15.974Z,63.40
2019-04-21T20:02:48.305Z,63.70
2019-04-21T20:05:32.770Z,64.30
2019-04-21T20:08:11.392Z,64.60
2019-04-21T20:10:49.311Z,64.60
2019-04-21T20:13:26.073Z,65.00
2019-04-21T20:15:55.852Z,65.60
2019-04-21T20:18:16.565Z,66.80
2019-04-21T20:23:32.771Z,67.20
2019-04-21T20:26:06.365Z,67.90
2019-04-21T20:28:48.964Z,67.90
2019-04-21T20:31:23.346Z,68.20
2019-04-21T20:36:38.054Z,69.00
2019-04-21T20:38:55.081Z,69.20
2019-04-21T20:41:32.522Z,69.70
2019-04-21T20:44:17.189Z,70.00
2019-04-21T20:46:40.288Z,69.90
2019-04-21T20:49:07.006Z,70.20
2019-04-21T20:51:41.766Z,70.20
2019-04-21T20:54:24.637Z,70.20
2019-04-21T20:56:57.537Z,70.70
2019-04-21T20:59:25.021Z,70.70
2019-04-21T21:02:01.403Z,70.90
2019-04-21T21:04:29.545Z,71.10
2019-04-21T21:07:25.562Z,71.40
2019-04-21T21:09:41.464Z,71.70
2019-04-21T21:12:37.144Z,71.80
2019-04-21T21:14:45.777Z,72.10
2019-04-21T21:17:36.211Z,72.30
2019-04-21T21:20:00.872Z,72.70
2019-04-21T21:22:22.686Z,72.80
2019-04-21T21:24:58.393Z,73.30
2019-04-21T21:27:31.113Z,73.40
2019-04-21T21:30:05.581Z,74.30
2019-04-21T21:32:37.387Z,74.50
2019-04-21T21:35:13.197Z,74.80
2019-04-21T21:37:48.955Z,75.00
2019-04-21T21:40:26.030Z,75.50
2019-04-21T21:42:37.518Z,75.80
2019-04-21T21:45:13.827Z,76.30
2019-04-21T21:47:53.573Z,76.80
2019-04-21T21:50:24.140Z,78.00
2019-04-21T21:52:58.902Z,77.60
2019-04-21T21:55:23.709Z,77.90
2019-04-21T21:58:01.807Z,78.20
2019-04-21T22:00:32.162Z,78.40
2019-04-21T22:03:19.642Z,78.70
2019-04-21T22:05:53.547Z,79.20
2019-04-21T22:08:20.947Z,79.40
2019-04-21T22:10:54.994Z,79.90
2019-04-21T22:13:37.619Z,80.00
2019-04-21T22:16:09.954Z,80.30
2019-04-21T22:19:01.562Z,80.30
2019-04-21T22:21:34.674Z,80.60
2019-04-21T22:23:54.827Z,81.20
2019-04-21T22:26:20.985Z,81.80
2019-04-21T22:28:55.858Z,81.10
2019-04-21T22:31:31.843Z,81.10
2019-04-21T22:34:05.434Z,81.30
2019-04-21T22:36:44.857Z,81.50
2019-04-21T22:39:26.636Z,81.80
2019-04-21T22:41:45.630Z,81.90
2019-04-21T22:44:18.849Z,82.10
2019-04-21T22:47:04.143Z,82.60
2019-04-21T22:49:24.067Z,82.60
2019-04-21T22:51:55.708Z,82.70
2019-04-21T22:54:35.439Z,83.00
2019-04-21T22:57:07.326Z,83.40
2019-04-21T22:59:34.199Z,83.30
2019-04-21T23:02:15.304Z,83.90
2019-04-21T23:04:46.184Z,84.30
2019-04-21T23:07:18.764Z,84.60
2019-04-21T23:09:47.636Z,85.10
2019-04-21T23:12:27.702Z,85.20
2019-04-21T23:15:01.879Z,86.30
2019-04-21T23:17:46.588Z,85.80
2019-04-21T23:20:17.548Z,86.30
2019-04-21T23:23:00.930Z,86.30
2019-04-21T23:25:25.129Z,86.50
2019-04-21T23:27:59.139Z,87.00
2019-04-21T23:30:38.871Z,86.80
2019-04-21T23:32:57.236Z,87.20
2019-04-21T23:35:32.236Z,87.80
2019-04-21T23:38:04.755Z,88.10
2019-04-21T23:40:35.255Z,88.40
2019-04-21T23:43:11.074Z,88.60
2019-04-21T23:45:41.838Z,89.00
2019-04-21T23:48:24.634Z,90.00
2019-04-21T23:50:51.448Z,90.00
2019-04-21T23:53:21.543Z,90.40
2019-04-21T23:55:55.338Z,90.60
2019-04-21T23:58:35.199Z,90.90
